sensor_id;sensor_type;location;lat;lon;timestamp;temperature;humidity
41116;DHT22;26861;51.824;4.682;2024-03-02T00:00:18;15.80;61.60
41116;DHT22;26861;51.824;4.682;2024-03-02T00:02:47;15.80;65.60
41116;DHT22;26861;51.824;4.682;2024-03-02T00:05:13;15.80;66.00
41116;DHT22;26861;51.824;4.682;2024-03-02T00:07:42;15.80;66.30
41116;DHT22;26861;51.824;4.682;2024-03-02T00:10:09;15.90;61.40
41116;DHT22;26861;51.824;4.682;2024-03-02T00:12:38;15.80;64.70
41116;DHT22;26861;51.824;4.682;2024-03-02T00:15:16;15.90;66.20
41116;DHT22;26861;51.824;4.682;2024-03-02T00:17:45;15.90;61.30
41116;DHT22;26861;51.824;4.682;2024-03-02T00:20:11;15.90;66.10
41116;DHT22;26861;51.824;4.682;2024-03-02T00:22:40;15.90;66.00
41116;DHT22;26861;51.824;4.682;2024-03-02T00:25:06;15.80;65.90
41116;DHT22;26861;51.824;4.682;2024-03-02T00:27:33;15.90;65.00
41116;DHT22;26861;51.824;4.682;2024-03-02T00:30:00;15.90;66.40
41116;DHT22;26861;51.824;4.682;2024-03-02T00:32:26;15.80;66.10
41116;DHT22;26861;51.824;4.682;2024-03-02T00:34:53;15.90;66.00
41116;DHT22;26861;51.824;4.682;2024-03-02T00:37:19;15.90;66.30
41116;DHT22;26861;51.824;4.682;2024-03-02T00:39:46;16.10;66.10
41116;DHT22;26861;51.824;4.682;2024-03-02T00:42:13;15.80;66.40
41116;DHT22;26861;51.824;4.682;2024-03-02T00:44:39;15.90;66.20
41116;DHT22;26861;51.824;4.682;2024-03-02T00:47:05;15.90;66.20
41116;DHT22;26861;51.824;4.682;2024-03-02T00:49:31;15.90;66.40
41116;DHT22;26861;51.824;4.682;2024-03-02T00:51:56;16.10;66.40
41116;DHT22;26861;51.824;4.682;2024-03-02T00:54:22;15.90;66.00
41116;DHT22;26861;51.824;4.682;2024-03-02T00:56:49;15.80;66.40
41116;DHT22;26861;51.824;4.682;2024-03-02T00:59:15;15.90;66.40
41116;DHT22;26861;51.824;4.682;2024-03-02T01:01:40;15.90;65.60
41116;DHT22;26861;51.824;4.682;2024-03-02T01:04:07;15.80;66.20
41116;DHT22;26861;51.824;4.682;2024-03-02T01:06:33;15.90;66.90
41116;DHT22;26861;51.824;4.682;2024-03-02T01:08:59;15.90;65.90
41116;DHT22;26861;51.824;4.682;2024-03-02T01:11:25;15.90;66.20
41116;DHT22;26861;51.824;4.682;2024-03-02T01:13:51;15.90;66.10
41116;DHT22;26861;51.824;4.682;2024-03-02T01:16:17;15.80;65.80
41116;DHT22;26861;51.824;4.682;2024-03-02T01:18:44;15.80;66.10
41116;DHT22;26861;51.824;4.682;2024-03-02T01:21:10;15.80;65.80
41116;DHT22;26861;51.824;4.682;2024-03-02T01:23:36;15.90;66.00
41116;DHT22;26861;51.824;4.682;2024-03-02T01:26:02;15.80;66.20
41116;DHT22;26861;51.824;4.682;2024-03-02T01:28:28;15.80;65.50
41116;DHT22;26861;51.824;4.682;2024-03-02T01:30:54;15.90;66.00
41116;DHT22;26861;51.824;4.682;2024-03-02T01:33:20;15.90;66.10
41116;DHT22;26861;51.824;4.682;2024-03-02T01:35:46;15.80;66.00
41116;DHT22;26861;51.824;4.682;2024-03-02T01:38:12;15.80;65.90
41116;DHT22;26861;51.824;4.682;2024-03-02T01:40:38;15.80;66.10
41116;DHT22;26861;51.824;4.682;2024-03-02T01:43:04;15.80;66.00
41116;DHT22;26861;51.824;4.682;2024-03-02T01:45:30;15.80;65.90
41116;DHT22;26861;51.824;4.682;2024-03-02T01:47:56;15.90;66.00
41116;DHT22;26861;51.824;4.682;2024-03-02T01:50:25;15.80;66.10
41116;DHT22;26861;51.824;4.682;2024-03-02T01:52:51;15.80;61.20
41116;DHT22;26861;51.824;4.682;2024-03-02T01:55:17;15.90;66.00
41116;DHT22;26861;51.824;4.682;2024-03-02T01:57:42;15.80;65.80
41116;DHT22;26861;51.824;4.682;2024-03-02T02:00:10;15.80;65.60
41116;DHT22;26861;51.824;4.682;2024-03-02T02:02:36;15.80;65.40
41116;DHT22;26861;51.824;4.682;2024-03-02T02:05:01;15.70;65.40
41116;DHT22;26861;51.824;4.682;2024-03-02T02:07:27;15.80;65.60
41116;DHT22;26861;51.824;4.682;2024-03-02T02:09:52;15.80;65.60
41116;DHT22;26861;51.824;4.682;2024-03-02T02:12:18;16.10;66.00
41116;DHT22;26861;51.824;4.682;2024-03-02T02:14:49;15.80;65.60
41116;DHT22;26861;51.824;4.682;2024-03-02T02:17:15;15.80;61.00
41116;DHT22;26861;51.824;4.682;2024-03-02T02:19:41;15.90;65.30
41116;DHT22;26861;51.824;4.682;2024-03-02T02:22:08;15.80;65.80
41116;DHT22;26861;51.824;4.682;2024-03-02T02:24:33;15.80;65.50
41116;DHT22;26861;51.824;4.682;2024-03-02T02:26:59;15.80;65.90
41116;DHT22;26861;51.824;4.682;2024-03-02T02:29:24;15.80;66.00
41116;DHT22;26861;51.824;4.682;2024-03-02T02:31:50;15.80;65.40
41116;DHT22;26861;51.824;4.682;2024-03-02T02:34:16;15.80;66.00
41116;DHT22;26861;51.824;4.682;2024-03-02T02:36:41;15.80;65.40
41116;DHT22;26861;51.824;4.682;2024-03-02T02:39:09;15.80;65.70
41116;DHT22;26861;51.824;4.682;2024-03-02T02:41:36;15.80;65.10
41116;DHT22;26861;51.824;4.682;2024-03-02T02:44:01;15.80;65.70
41116;DHT22;26861;51.824;4.682;2024-03-02T02:46:27;15.80;65.50
41116;DHT22;26861;51.824;4.682;2024-03-02T02:48:52;15.80;65.60
41116;DHT22;26861;51.824;4.682;2024-03-02T02:51:19;15.80;65.50
41116;DHT22;26861;51.824;4.682;2024-03-02T02:53:44;15.80;65.40
41116;DHT22;26861;51.824;4.682;2024-03-02T02:56:10;15.80;65.50
41116;DHT22;26861;51.824;4.682;2024-03-02T02:58:35;15.80;64.80
41116;DHT22;26861;51.824;4.682;2024-03-02T03:01:01;15.80;65.40
41116;DHT22;26861;51.824;4.682;2024-03-02T03:03:26;15.70;65.10
41116;DHT22;26861;51.824;4.682;2024-03-02T03:05:52;15.80;65.40
41116;DHT22;26861;51.824;4.682;2024-03-02T03:08:17;15.70;65.50
41116;DHT22;26861;51.824;4.682;2024-03-02T03:10:43;15.80;65.40
41116;DHT22;26861;51.824;4.682;2024-03-02T03:13:09;15.70;65.40
41116;DHT22;26861;51.824;4.682;2024-03-02T03:15:35;15.70;65.40
41116;DHT22;26861;51.824;4.682;2024-03-02T03:18:04;15.70;65.40
41116;DHT22;26861;51.824;4.682;2024-03-02T03:20:30;15.70;64.70
41116;DHT22;26861;51.824;4.682;2024-03-02T03:22:56;15.70;65.90
41116;DHT22;26861;51.824;4.682;2024-03-02T03:25:21;15.60;65.50
41116;DHT22;26861;51.824;4.682;2024-03-02T03:27:47;15.70;65.90
41116;DHT22;26861;51.824;4.682;2024-03-02T03:30:12;15.80;65.80
41116;DHT22;26861;51.824;4.682;2024-03-02T03:32:38;15.70;65.10
41116;DHT22;26861;51.824;4.682;2024-03-02T03:35:04;15.60;65.50
41116;DHT22;26861;51.824;4.682;2024-03-02T03:37:29;15.60;64.30
41116;DHT22;26861;51.824;4.682;2024-03-02T03:40:01;15.70;62.00
41116;DHT22;26861;51.824;4.682;2024-03-02T03:42:29;15.70;65.80
41116;DHT22;26861;51.824;4.682;2024-03-02T03:44:55;15.60;66.00
41116;DHT22;26861;51.824;4.682;2024-03-02T03:47:20;15.60;65.90
41116;DHT22;26861;51.824;4.682;2024-03-02T03:49:46;15.60;65.80
41116;DHT22;26861;51.824;4.682;2024-03-02T03:52:11;15.60;66.10
41116;DHT22;26861;51.824;4.682;2024-03-02T03:54:37;15.80;66.00
41116;DHT22;26861;51.824;4.682;2024-03-02T03:57:03;15.40;65.50
41116;DHT22;26861;51.824;4.682;2024-03-02T03:59:29;15.60;65.40
41116;DHT22;26861;51.824;4.682;2024-03-02T04:01:55;15.60;65.40
41116;DHT22;26861;51.824;4.682;2024-03-02T04:04:21;15.70;65.70
41116;DHT22;26861;51.824;4.682;2024-03-02T04:06:47;15.80;65.80
41116;DHT22;26861;51.824;4.682;2024-03-02T04:09:13;15.50;65.80
41116;DHT22;26861;51.824;4.682;2024-03-02T04:11:39;15.60;65.30
41116;DHT22;26861;51.824;4.682;2024-03-02T04:14:05;15.60;66.00
41116;DHT22;26861;51.824;4.682;2024-03-02T04:16:31;15.60;65.70
41116;DHT22;26861;51.824;4.682;2024-03-02T04:18:57;15.60;65.50
41116;DHT22;26861;51.824;4.682;2024-03-02T04:21:23;15.60;65.80
41116;DHT22;26861;51.824;4.682;2024-03-02T04:23:49;15.60;65.80
41116;DHT22;26861;51.824;4.682;2024-03-02T04:26:15;15.60;65.60
41116;DHT22;26861;51.824;4.682;2024-03-02T04:28:45;15.50;65.50
41116;DHT22;26861;51.824;4.682;2024-03-02T04:31:11;15.60;65.90
41116;DHT22;26861;51.824;4.682;2024-03-02T04:33:37;15.60;65.60
41116;DHT22;26861;51.824;4.682;2024-03-02T04:36:03;15.70;65.70
41116;DHT22;26861;51.824;4.682;2024-03-02T04:38:29;15.50;64.80
41116;DHT22;26861;51.824;4.682;2024-03-02T04:40:56;15.50;65.20
41116;DHT22;26861;51.824;4.682;2024-03-02T04:43:21;15.60;65.50
41116;DHT22;26861;51.824;4.682;2024-03-02T04:45:47;15.60;65.60
41116;DHT22;26861;51.824;4.682;2024-03-02T04:48:13;15.50;65.70
41116;DHT22;26861;51.824;4.682;2024-03-02T04:50:39;15.60;65.60
41116;DHT22;26861;51.824;4.682;2024-03-02T04:53:05;15.50;65.20
41116;DHT22;26861;51.824;4.682;2024-03-02T04:55:31;15.50;65.60
41116;DHT22;26861;51.824;4.682;2024-03-02T04:57:59;15.80;62.20
41116;DHT22;26861;51.824;4.682;2024-03-02T05:00:24;15.50;65.90
41116;DHT22;26861;51.824;4.682;2024-03-02T05:02:50;15.50;65.90
41116;DHT22;26861;51.824;4.682;2024-03-02T05:05:16;15.50;65.70
41116;DHT22;26861;51.824;4.682;2024-03-02T05:07:42;15.50;65.90
41116;DHT22;26861;51.824;4.682;2024-03-02T05:10:09;15.00;65.30
41116;DHT22;26861;51.824;4.682;2024-03-02T05:12:34;15.30;65.70
41116;DHT22;26861;51.824;4.682;2024-03-02T05:15:20;15.40;65.30
41116;DHT22;26861;51.824;4.682;2024-03-02T05:17:46;15.50;65.70
41116;DHT22;26861;51.824;4.682;2024-03-02T05:20:12;15.40;65.50
41116;DHT22;26861;51.824;4.682;2024-03-02T05:22:37;15.40;65.80
41116;DHT22;26861;51.824;4.682;2024-03-02T05:25:03;15.50;65.60
41116;DHT22;26861;51.824;4.682;2024-03-02T05:27:29;15.50;64.80
41116;DHT22;26861;51.824;4.682;2024-03-02T05:29:55;15.40;65.50
41116;DHT22;26861;51.824;4.682;2024-03-02T05:32:21;15.40;65.70
41116;DHT22;26861;51.824;4.682;2024-03-02T05:34:47;15.50;65.50
41116;DHT22;26861;51.824;4.682;2024-03-02T05:37:12;15.40;65.10
41116;DHT22;26861;51.824;4.682;2024-03-02T05:39:38;15.30;65.30
41116;DHT22;26861;51.824;4.682;2024-03-02T05:42:03;15.40;65.40
41116;DHT22;26861;51.824;4.682;2024-03-02T05:44:29;15.40;65.30
41116;DHT22;26861;51.824;4.682;2024-03-02T05:46:55;15.40;65.20
41116;DHT22;26861;51.824;4.682;2024-03-02T05:49:20;15.50;65.30
41116;DHT22;26861;51.824;4.682;2024-03-02T05:51:46;15.40;65.40
41116;DHT22;26861;51.824;4.682;2024-03-02T05:54:11;15.40;65.50
41116;DHT22;26861;51.824;4.682;2024-03-02T05:56:37;15.40;65.50
41116;DHT22;26861;51.824;4.682;2024-03-02T05:59:02;15.40;65.70
41116;DHT22;26861;51.824;4.682;2024-03-02T06:01:38;15.40;65.00
41116;DHT22;26861;51.824;4.682;2024-03-02T06:04:04;15.40;65.60
41116;DHT22;26861;51.824;4.682;2024-03-02T06:06:29;15.50;65.40
41116;DHT22;26861;51.824;4.682;2024-03-02T06:08:55;15.40;65.50
41116;DHT22;26861;51.824;4.682;2024-03-02T06:11:20;15.40;65.50
41116;DHT22;26861;51.824;4.682;2024-03-02T06:13:46;15.40;65.40
41116;DHT22;26861;51.824;4.682;2024-03-02T06:16:12;15.40;65.70
41116;DHT22;26861;51.824;4.682;2024-03-02T06:18:37;15.40;65.20
41116;DHT22;26861;51.824;4.682;2024-03-02T06:21:03;15.40;65.90
41116;DHT22;26861;51.824;4.682;2024-03-02T06:23:28;15.40;65.00
41116;DHT22;26861;51.824;4.682;2024-03-02T06:25:54;15.40;65.60
41116;DHT22;26861;51.824;4.682;2024-03-02T06:28:19;15.40;65.40
41116;DHT22;26861;51.824;4.682;2024-03-02T06:30:45;15.40;65.50
41116;DHT22;26861;51.824;4.682;2024-03-02T06:33:10;15.50;66.10
41116;DHT22;26861;51.824;4.682;2024-03-02T06:35:36;15.40;65.40
41116;DHT22;26861;51.824;4.682;2024-03-02T06:38:02;15.40;65.70
41116;DHT22;26861;51.824;4.682;2024-03-02T06:40:27;15.40;66.00
41116;DHT22;26861;51.824;4.682;2024-03-02T06:42:53;15.40;66.10
41116;DHT22;26861;51.824;4.682;2024-03-02T06:45:19;15.50;66.10
41116;DHT22;26861;51.824;4.682;2024-03-02T06:47:44;15.40;66.30
41116;DHT22;26861;51.824;4.682;2024-03-02T06:50:10;15.40;66.30
41116;DHT22;26861;51.824;4.682;2024-03-02T06:52:35;15.40;65.70
41116;DHT22;26861;51.824;4.682;2024-03-02T06:55:01;15.40;66.20
41116;DHT22;26861;51.824;4.682;2024-03-02T06:57:27;15.40;66.60
41116;DHT22;26861;51.824;4.682;2024-03-02T06:59:52;15.40;66.60
41116;DHT22;26861;51.824;4.682;2024-03-02T07:02:20;15.40;66.10
41116;DHT22;26861;51.824;4.682;2024-03-02T07:04:46;15.10;66.20
41116;DHT22;26861;51.824;4.682;2024-03-02T07:07:12;15.40;66.60
41116;DHT22;26861;51.824;4.682;2024-03-02T07:09:37;15.30;66.40
41116;DHT22;26861;51.824;4.682;2024-03-02T07:12:03;17.80;67.90
41116;DHT22;26861;51.824;4.682;2024-03-02T07:14:28;15.40;67.30
41116;DHT22;26861;51.824;4.682;2024-03-02T07:17:13;15.50;63.10
41116;DHT22;26861;51.824;4.682;2024-03-02T07:19:38;15.30;66.60
41116;DHT22;26861;51.824;4.682;2024-03-02T07:22:07;15.40;66.90
41116;DHT22;26861;51.824;4.682;2024-03-02T07:24:40;15.40;62.20
41116;DHT22;26861;51.824;4.682;2024-03-02T07:27:06;15.50;62.30
41116;DHT22;26861;51.824;4.682;2024-03-02T07:29:32;15.40;67.00
41116;DHT22;26861;51.824;4.682;2024-03-02T07:31:57;15.40;66.90
41116;DHT22;26861;51.824;4.682;2024-03-02T07:34:23;15.40;66.80
41116;DHT22;26861;51.824;4.682;2024-03-02T07:36:48;15.40;66.60
41116;DHT22;26861;51.824;4.682;2024-03-02T07:39:14;15.40;66.90
41116;DHT22;26861;51.824;4.682;2024-03-02T07:41:39;15.40;67.00
41116;DHT22;26861;51.824;4.682;2024-03-02T07:44:05;15.40;66.80
41116;DHT22;26861;51.824;4.682;2024-03-02T07:46:30;15.60;66.90
41116;DHT22;26861;51.824;4.682;2024-03-02T07:48:56;15.70;67.10
41116;DHT22;26861;51.824;4.682;2024-03-02T07:51:21;15.40;66.70
41116;DHT22;26861;51.824;4.682;2024-03-02T07:53:47;15.40;66.70
41116;DHT22;26861;51.824;4.682;2024-03-02T07:56:12;15.50;66.80
41116;DHT22;26861;51.824;4.682;2024-03-02T07:58:38;15.40;66.90
41116;DHT22;26861;51.824;4.682;2024-03-02T08:01:03;15.30;66.60
41116;DHT22;26861;51.824;4.682;2024-03-02T08:03:29;15.50;66.10
41116;DHT22;26861;51.824;4.682;2024-03-02T08:05:54;15.30;66.60
41116;DHT22;26861;51.824;4.682;2024-03-02T08:08:20;15.60;66.60
41116;DHT22;26861;51.824;4.682;2024-03-02T08:10:46;15.40;66.60
41116;DHT22;26861;51.824;4.682;2024-03-02T08:13:11;15.40;66.60
41116;DHT22;26861;51.824;4.682;2024-03-02T08:15:37;15.40;66.30
41116;DHT22;26861;51.824;4.682;2024-03-02T08:18:02;15.40;66.50
41116;DHT22;26861;51.824;4.682;2024-03-02T08:20:28;15.40;66.00
41116;DHT22;26861;51.824;4.682;2024-03-02T08:22:54;15.50;66.30
41116;DHT22;26861;51.824;4.682;2024-03-02T08:25:20;15.40;66.10
41116;DHT22;26861;51.824;4.682;2024-03-02T08:27:46;15.40;66.70
41116;DHT22;26861;51.824;4.682;2024-03-02T08:30:11;15.40;66.30
41116;DHT22;26861;51.824;4.682;2024-03-02T08:32:37;15.40;64.90
41116;DHT22;26861;51.824;4.682;2024-03-02T08:35:03;15.50;66.50
41116;DHT22;26861;51.824;4.682;2024-03-02T08:37:29;15.40;65.40
41116;DHT22;26861;51.824;4.682;2024-03-02T08:39:54;15.40;66.70
41116;DHT22;26861;51.824;4.682;2024-03-02T08:42:20;15.50;66.90
41116;DHT22;26861;51.824;4.682;2024-03-02T08:44:45;15.50;66.90
41116;DHT22;26861;51.824;4.682;2024-03-02T08:47:11;15.50;66.90
41116;DHT22;26861;51.824;4.682;2024-03-02T08:49:36;15.90;67.30
41116;DHT22;26861;51.824;4.682;2024-03-02T08:52:02;15.50;66.70
41116;DHT22;26861;51.824;4.682;2024-03-02T08:54:27;15.50;67.10
41116;DHT22;26861;51.824;4.682;2024-03-02T08:56:53;15.60;67.00
41116;DHT22;26861;51.824;4.682;2024-03-02T08:59:18;15.50;67.30
41116;DHT22;26861;51.824;4.682;2024-03-02T09:01:44;15.60;65.80
41116;DHT22;26861;51.824;4.682;2024-03-02T09:04:10;15.70;67.00
41116;DHT22;26861;51.824;4.682;2024-03-02T09:06:35;15.70;67.20
41116;DHT22;26861;51.824;4.682;2024-03-02T09:09:01;14.60;66.60
41116;DHT22;26861;51.824;4.682;2024-03-02T09:11:26;15.60;66.40
41116;DHT22;26861;51.824;4.682;2024-03-02T09:13:52;15.70;67.00
41116;DHT22;26861;51.824;4.682;2024-03-02T09:16:18;15.70;66.80
41116;DHT22;26861;51.824;4.682;2024-03-02T09:18:44;15.80;66.80
41116;DHT22;26861;51.824;4.682;2024-03-02T09:21:10;15.80;66.90
41116;DHT22;26861;51.824;4.682;2024-03-02T09:23:35;15.80;66.70
41116;DHT22;26861;51.824;4.682;2024-03-02T09:26:01;15.90;66.60
41116;DHT22;26861;51.824;4.682;2024-03-02T09:28:26;15.70;66.60
41116;DHT22;26861;51.824;4.682;2024-03-02T09:30:52;15.90;66.60
41116;DHT22;26861;51.824;4.682;2024-03-02T09:33:17;15.90;66.80
41116;DHT22;26861;51.824;4.682;2024-03-02T09:35:43;15.90;66.50
41116;DHT22;26861;51.824;4.682;2024-03-02T09:38:09;16.00;66.80
41116;DHT22;26861;51.824;4.682;2024-03-02T09:40:35;16.40;66.70
41116;DHT22;26861;51.824;4.682;2024-03-02T09:43:01;16.10;66.40
41116;DHT22;26861;51.824;4.682;2024-03-02T09:45:27;16.10;66.80
41116;DHT22;26861;51.824;4.682;2024-03-02T09:47:52;16.00;66.30
41116;DHT22;26861;51.824;4.682;2024-03-02T09:50:18;16.10;66.70
41116;DHT22;26861;51.824;4.682;2024-03-02T09:52:43;16.20;66.40
41116;DHT22;26861;51.824;4.682;2024-03-02T09:55:09;16.30;66.30
41116;DHT22;26861;51.824;4.682;2024-03-02T09:57:35;16.30;66.30
41116;DHT22;26861;51.824;4.682;2024-03-02T10:00:00;16.30;66.40
41116;DHT22;26861;51.824;4.682;2024-03-02T10:02:26;16.20;65.70
41116;DHT22;26861;51.824;4.682;2024-03-02T10:04:51;16.30;66.30
41116;DHT22;26861;51.824;4.682;2024-03-02T10:07:17;16.40;65.80
41116;DHT22;26861;51.824;4.682;2024-03-02T10:09:47;16.40;65.80
41116;DHT22;26861;51.824;4.682;2024-03-02T10:12:13;16.50;65.10
41116;DHT22;26861;51.824;4.682;2024-03-02T10:14:39;16.50;65.80
41116;DHT22;26861;51.824;4.682;2024-03-02T10:17:05;16.60;65.90
41116;DHT22;26861;51.824;4.682;2024-03-02T10:19:31;16.60;65.60
41116;DHT22;26861;51.824;4.682;2024-03-02T10:21:58;16.60;65.40
41116;DHT22;26861;51.824;4.682;2024-03-02T10:24:24;16.70;65.80
41116;DHT22;26861;51.824;4.682;2024-03-02T10:26:50;16.70;65.30
41116;DHT22;26861;51.824;4.682;2024-03-02T10:29:16;16.80;65.50
41116;DHT22;26861;51.824;4.682;2024-03-02T10:31:42;16.80;65.30
41116;DHT22;26861;51.824;4.682;2024-03-02T10:34:09;16.90;65.10
41116;DHT22;26861;51.824;4.682;2024-03-02T10:36:35;16.50;64.70
41116;DHT22;26861;51.824;4.682;2024-03-02T10:39:05;17.00;65.00
41116;DHT22;26861;51.824;4.682;2024-03-02T10:41:34;17.00;65.10
41116;DHT22;26861;51.824;4.682;2024-03-02T10:44:03;17.00;60.30
41116;DHT22;26861;51.824;4.682;2024-03-02T10:46:30;17.10;64.80
41116;DHT22;26861;51.824;4.682;2024-03-02T10:48:56;17.30;64.80
41116;DHT22;26861;51.824;4.682;2024-03-02T10:51:27;17.30;64.10
41116;DHT22;26861;51.824;4.682;2024-03-02T10:53:59;17.30;59.80
41116;DHT22;26861;51.824;4.682;2024-03-02T10:56:38;17.40;64.30
41116;DHT22;26861;51.824;4.682;2024-03-02T11:01:48;17.60;63.30
41116;DHT22;26861;51.824;4.682;2024-03-02T11:04:20;17.60;63.40
41116;DHT22;26861;51.824;4.682;2024-03-02T11:06:51;17.70;59.40
41116;DHT22;26861;51.824;4.682;2024-03-02T11:09:20;17.80;59.00
41116;DHT22;26861;51.824;4.682;2024-03-02T11:11:48;17.80;63.40
41116;DHT22;26861;51.824;4.682;2024-03-02T11:14:16;17.90;63.20
41116;DHT22;26861;51.824;4.682;2024-03-02T11:16:42;18.00;63.40
41116;DHT22;26861;51.824;4.682;2024-03-02T11:19:12;18.00;63.20
41116;DHT22;26861;51.824;4.682;2024-03-02T11:21:38;18.10;58.80
41116;DHT22;26861;51.824;4.682;2024-03-02T11:26:49;18.10;58.50
41116;DHT22;26861;51.824;4.682;2024-03-02T11:32:05;18.20;58.10
41116;DHT22;26861;51.824;4.682;2024-03-02T11:34:34;18.60;58.40
41116;DHT22;26861;51.824;4.682;2024-03-02T11:37:03;18.30;58.00
41116;DHT22;26861;51.824;4.682;2024-03-02T11:39:29;18.30;58.00
41116;DHT22;26861;51.824;4.682;2024-03-02T11:41:55;18.30;62.50
41116;DHT22;26861;51.824;4.682;2024-03-02T11:44:21;18.40;62.80
41116;DHT22;26861;51.824;4.682;2024-03-02T11:46:51;18.30;62.60
41116;DHT22;26861;51.824;4.682;2024-03-02T11:49:37;18.30;62.40
41116;DHT22;26861;51.824;4.682;2024-03-02T11:52:04;18.40;58.20
41116;DHT22;26861;51.824;4.682;2024-03-02T11:54:30;18.40;61.60
41116;DHT22;26861;51.824;4.682;2024-03-02T11:56:58;18.50;62.20
41116;DHT22;26861;51.824;4.682;2024-03-02T11:59:25;18.60;62.50
41116;DHT22;26861;51.824;4.682;2024-03-02T12:01:51;18.70;61.30
41116;DHT22;26861;51.824;4.682;2024-03-02T12:04:17;18.70;61.90
41116;DHT22;26861;51.824;4.682;2024-03-02T12:06:43;18.90;62.20
41116;DHT22;26861;51.824;4.682;2024-03-02T12:09:09;18.50;61.50
41116;DHT22;26861;51.824;4.682;2024-03-02T12:11:37;18.80;61.50
41116;DHT22;26861;51.824;4.682;2024-03-02T12:14:03;19.00;60.90
41116;DHT22;26861;51.824;4.682;2024-03-02T12:16:30;19.20;61.30
41116;DHT22;26861;51.824;4.682;2024-03-02T12:18:56;19.10;61.30
41116;DHT22;26861;51.824;4.682;2024-03-02T12:21:22;19.10;61.30
41116;DHT22;26861;51.824;4.682;2024-03-02T12:23:48;19.20;61.10
41116;DHT22;26861;51.824;4.682;2024-03-02T12:26:15;19.40;61.00
41116;DHT22;26861;51.824;4.682;2024-03-02T12:28:41;19.30;61.10
41116;DHT22;26861;51.824;4.682;2024-03-02T12:31:08;19.30;61.10
41116;DHT22;26861;51.824;4.682;2024-03-02T12:33:34;19.50;61.00
41116;DHT22;26861;51.824;4.682;2024-03-02T12:36:00;19.50;60.70
41116;DHT22;26861;51.824;4.682;2024-03-02T12:38:26;19.50;60.70
41116;DHT22;26861;51.824;4.682;2024-03-02T12:40:52;19.70;60.60
41116;DHT22;26861;51.824;4.682;2024-03-02T12:43:18;19.80;60.20
41116;DHT22;26861;51.824;4.682;2024-03-02T12:45:44;19.80;60.00
41116;DHT22;26861;51.824;4.682;2024-03-02T12:48:10;19.90;60.00
41116;DHT22;26861;51.824;4.682;2024-03-02T12:50:36;19.80;59.80
41116;DHT22;26861;51.824;4.682;2024-03-02T12:53:02;19.70;60.10
41116;DHT22;26861;51.824;4.682;2024-03-02T12:55:28;19.60;60.40
41116;DHT22;26861;51.824;4.682;2024-03-02T12:57:54;19.50;60.60
41116;DHT22;26861;51.824;4.682;2024-03-02T13:00:21;19.50;61.00
41116;DHT22;26861;51.824;4.682;2024-03-02T13:02:47;19.50;60.70
41116;DHT22;26861;51.824;4.682;2024-03-02T13:05:16;19.50;61.50
41116;DHT22;26861;51.824;4.682;2024-03-02T13:07:42;19.30;61.60
41116;DHT22;26861;51.824;4.682;2024-03-02T13:10:08;19.20;61.60
41116;DHT22;26861;51.824;4.682;2024-03-02T13:12:35;19.20;62.00
41116;DHT22;26861;51.824;4.682;2024-03-02T13:15:01;19.10;62.50
41116;DHT22;26861;51.824;4.682;2024-03-02T13:17:28;19.10;62.70
41116;DHT22;26861;51.824;4.682;2024-03-02T13:19:58;19.10;63.10
41116;DHT22;26861;51.824;4.682;2024-03-02T13:22:24;18.80;58.90
41116;DHT22;26861;51.824;4.682;2024-03-02T13:24:51;18.70;63.40
41116;DHT22;26861;51.824;4.682;2024-03-02T13:27:17;18.80;63.80
41116;DHT22;26861;51.824;4.682;2024-03-02T13:29:46;18.80;60.40
41116;DHT22;26861;51.824;4.682;2024-03-02T13:32:32;18.70;63.80
41116;DHT22;26861;51.824;4.682;2024-03-02T13:34:58;18.60;63.90
41116;DHT22;26861;51.824;4.682;2024-03-02T13:37:24;18.60;63.70
41116;DHT22;26861;51.824;4.682;2024-03-02T13:39:50;18.60;64.10
41116;DHT22;26861;51.824;4.682;2024-03-02T13:42:16;18.60;64.20
41116;DHT22;26861;51.824;4.682;2024-03-02T13:44:45;18.50;64.40
41116;DHT22;26861;51.824;4.682;2024-03-02T13:47:15;18.20;59.80
41116;DHT22;26861;51.824;4.682;2024-03-02T13:49:41;18.50;64.40
41116;DHT22;26861;51.824;4.682;2024-03-02T13:52:11;18.20;64.60
41116;DHT22;26861;51.824;4.682;2024-03-02T13:54:42;18.40;64.40
41116;DHT22;26861;51.824;4.682;2024-03-02T13:57:09;18.30;60.30
41116;DHT22;26861;51.824;4.682;2024-03-02T13:59:34;18.30;64.80
41116;DHT22;26861;51.824;4.682;2024-03-02T14:02:01;18.40;64.60
41116;DHT22;26861;51.824;4.682;2024-03-02T14:04:27;18.30;65.20
41116;DHT22;26861;51.824;4.682;2024-03-02T14:06:53;18.30;64.70
41116;DHT22;26861;51.824;4.682;2024-03-02T14:09:19;18.20;64.90
41116;DHT22;26861;51.824;4.682;2024-03-02T14:11:46;18.20;65.20
41116;DHT22;26861;51.824;4.682;2024-03-02T14:14:12;18.20;65.20
41116;DHT22;26861;51.824;4.682;2024-03-02T14:16:37;18.20;64.80
41116;DHT22;26861;51.824;4.682;2024-03-02T14:19:03;18.20;64.80
41116;DHT22;26861;51.824;4.682;2024-03-02T14:21:30;18.20;65.30
41116;DHT22;26861;51.824;4.682;2024-03-02T14:23:55;18.30;64.90
41116;DHT22;26861;51.824;4.682;2024-03-02T14:26:21;18.10;65.20
41116;DHT22;26861;51.824;4.682;2024-03-02T14:28:46;18.10;65.30
41116;DHT22;26861;51.824;4.682;2024-03-02T14:31:12;18.10;65.10
41116;DHT22;26861;51.824;4.682;2024-03-02T14:33:38;18.10;65.10
41116;DHT22;26861;51.824;4.682;2024-03-02T14:36:03;18.10;65.10
41116;DHT22;26861;51.824;4.682;2024-03-02T14:38:30;18.20;64.00
41116;DHT22;26861;51.824;4.682;2024-03-02T14:40:55;18.10;65.50
41116;DHT22;26861;51.824;4.682;2024-03-02T14:43:21;18.00;65.20
41116;DHT22;26861;51.824;4.682;2024-03-02T14:45:47;18.10;65.50
41116;DHT22;26861;51.824;4.682;2024-03-02T14:48:13;18.10;65.20
41116;DHT22;26861;51.824;4.682;2024-03-02T14:50:38;18.10;65.00
41116;DHT22;26861;51.824;4.682;2024-03-02T14:53:04;18.00;65.30
41116;DHT22;26861;51.824;4.682;2024-03-02T14:55:32;18.00;64.90
41116;DHT22;26861;51.824;4.682;2024-03-02T14:57:59;18.00;65.40
41116;DHT22;26861;51.824;4.682;2024-03-02T15:00:25;18.10;65.10
41116;DHT22;26861;51.824;4.682;2024-03-02T15:02:50;18.00;64.50
41116;DHT22;26861;51.824;4.682;2024-03-02T15:05:16;18.00;65.00
41116;DHT22;26861;51.824;4.682;2024-03-02T15:07:43;18.00;65.10
41116;DHT22;26861;51.824;4.682;2024-03-02T15:10:08;18.10;65.50
41116;DHT22;26861;51.824;4.682;2024-03-02T15:12:34;18.00;64.90
41116;DHT22;26861;51.824;4.682;2024-03-02T15:14:59;18.00;65.00
41116;DHT22;26861;51.824;4.682;2024-03-02T15:17:27;17.90;65.40
41116;DHT22;26861;51.824;4.682;2024-03-02T15:19:53;18.00;65.80
41116;DHT22;26861;51.824;4.682;2024-03-02T15:22:18;17.90;65.20
41116;DHT22;26861;51.824;4.682;2024-03-02T15:24:44;18.00;65.50
41116;DHT22;26861;51.824;4.682;2024-03-02T15:27:09;17.90;65.40
41116;DHT22;26861;51.824;4.682;2024-03-02T15:29:35;17.90;65.40
41116;DHT22;26861;51.824;4.682;2024-03-02T15:32:01;17.80;65.30